Terminal Aerodrome Forecast
Issued by NWS St Louis, MO

Home | Current Version | Previous Version | Text Only | Print | Product List | Glossary On
Versions: 1 2 3 4 5 6 7 8 9 10 11 12 13 14 15 16 17 18 19 20 21 22 23 24 25 26
129
FTUS43 KLSX 191307 AAA
TAFCOU
TAF AMD
KCOU 191307Z 1913/2012 00000KT 6SM BR FEW250
      TEMPO 1913/1915 5SM BR
     FM191500 16006KT P6SM FEW250
     FM200700 16007KT P6SM BKN070=

USA.gov is the U.S. government's official web portal to all federal, state and local government web resources and services.